Latest Coastal Weather Observations for Ballina

IDN60701

Issued at 5:41 am EDT Sunday 7 February 2016 (issued every 10 minutes, with the page automatically refreshed every 10 minutes)

About coastal observations | Map of coastal stations | Coastal observations for NSW | Marine services | Other Formats
Station Details ID: 058198 Name: BALLINA AIRPORT AWS Lat: -28.84 Lon: 153.56 Height: 1.3 m
Data from the previous 72 hours. | See also: Recent months at Ballina
Date/Time
EDT
Temp

°C
Wind Pressure Rain
since 9am
mm
Weather Cloud Vis
km
Sea
Height
m
Swell
Dir
 
Speed
knots
Gust
knots
hPa Trend Height
m
Period
s
Dir
07/05:30am 21.0 SW 10 13 1013.0 - 8.8 - Partly cloudy 10 - - - -
07/05:00am 21.3 SW 6 9 1012.8 - 8.8 - Partly cloudy 10 - - - -
07/04:30am 22.9 SSW 8 12 1012.4 - 8.8 - Partly cloudy 10 - - - -
07/04:00am 23.5 S 10 14 1012.3 - 8.8 - Partly cloudy 10 - - - -
07/03:30am 23.5 S 10 18 1012.2 - 8.8 - Partly cloudy 10 - - - -
07/03:00am 23.5 S 12 17 1012.0 - 8.8 - Cloudy 10 - - - -
07/02:30am 23.4 SSE 13 19 1012.1 - 8.8 - Partly cloudy 10 - - - -
07/02:00am 22.8 SE 8 12 1012.5 - 8.8 - Partly cloudy 10 - - - -
07/01:30am 22.3 S 10 18 1012.9 - 8.4 - Partly cloudy 10 - - - -
07/01:00am 22.2 SSE 13 20 1013.4 - 8.4 - Partly cloudy 10 - - - -
07/12:30am 22.6 SSE 12 21 1013.8 - 8.4 - Partly cloudy 10 - - - -
07/12:00am 22.8 SE 8 13 1013.7 - 8.4 Recent precip. Cloudy 10 - - - -
 
Date/Time
EDT
Temp

°C
Wind Pressure Rain
since 9am
mm
Weather Cloud Vis
km
Sea
Height
m
Swell
Dir
 
Speed
knots
Gust
knots
hPa Trend Height
m
Period
s
Dir
06/11:30pm 22.6 SE 11 18 1013.7 - 8.2 - Partly cloudy 6 - - - -
06/11:00pm 23.0 SE 9 12 1014.0 - 7.6 - Partly cloudy 10 - - - -
06/10:30pm 22.9 SE 9 13 1013.7 - 7.6 - Partly cloudy 10 - - - -
06/10:00pm 22.9 SE 10 14 1013.6 - 7.2 - Partly cloudy 10 - - - -
06/09:30pm 22.9 SE 10 14 1013.5 - 7.0 - Partly cloudy 10 - - - -
06/09:00pm 23.0 SE 10 15 1013.2 - 7.0 Recent precip. Mostly cloudy 10 - - - -
06/08:30pm 22.4 SE 8 12 1012.9 - 7.0 - Partly cloudy 10 - - - -
06/08:28pm 22.3 SSE 8 12 1012.9 - 7.0 - Partly cloudy 10 - - - -
06/08:08pm 22.1 SSE 12 23 1013.0 - 6.6 - Partly cloudy 4 - - - -
06/08:07pm 22.6 SSE 11 23 1013.0 - 6.2 - Partly cloudy 8 - - - -
06/08:00pm 23.7 SSE 8 13 1012.6 - 5.4 - Partly cloudy 10 - - - -
06/07:30pm 23.8 SSE 11 15 1012.1 - 5.4 - Partly cloudy 10 - - - -
06/07:00pm 23.6 SSE 13 18 1011.9 - 5.4 - Partly cloudy 10 - - - -
06/06:39pm 23.0 SSE 10 14 1011.4 - 5.4 - Partly cloudy 10 - - - -
06/06:30pm 22.9 SSE 10 15 1011.4 - 5.4 - Partly cloudy 7 - - - -
06/06:23pm 22.9 SSE 11 21 1011.5 - 5.4 - Partly cloudy 5 - - - -
06/06:00pm 24.3 SE 10 13 1011.3 - 5.0 - Cloudy 10 - - - -
06/05:30pm 24.2 SSE 13 18 1011.2 - 5.0 - Partly cloudy 10 - - - -
06/05:00pm 24.6 SE 14 19 1010.9 - 5.0 - Partly cloudy 10 - - - -
06/04:30pm 24.4 SE 11 16 1011.1 - 5.0 - Partly cloudy 10 - - - -
06/04:00pm 23.4 SSE 11 18 1011.2 - 5.0 - Partly cloudy 7 - - - -
06/03:30pm 25.1 SSE 13 19 1011.2 - 4.8 - Partly cloudy 10 - - - -
06/03:12pm 24.2 SE 14 20 1011.2 - 4.8 - Partly cloudy 10 - - - -
06/03:00pm 23.2 SSE 14 21 1011.4 - 4.8 Rain Cloudy 3 - - - -
06/02:52pm 23.0 SSE 16 24 1011.5 - 4.4 - Partly cloudy 5 - - - -
06/02:30pm 24.7 SE 14 19 1011.5 - 3.8 - Partly cloudy 10 - - - -
06/02:19pm 24.3 SE 11 15 1011.5 - 3.8 - Partly cloudy 10 - - - -
06/02:00pm 23.3 SE 11 22 1011.7 - 3.8 - Partly cloudy 4 - - - -
06/01:31pm 23.8 SE 10 18 1011.9 - 2.8 - Partly cloudy 10 - - - -
06/01:30pm 23.6 SE 11 18 1011.9 - 2.8 - Partly cloudy 10 - - - -
06/01:12pm 23.3 SE 13 21 1012.1 - 2.8 - Partly cloudy 5 - - - -
06/01:00pm 25.6 SSE 11 15 1011.9 - 2.4 - Partly cloudy 10 - - - -
06/12:35pm 23.9 SSE 15 25 1012.3 - 2.4 - Partly cloudy 10 - - - -
06/12:30pm 24.0 SSE 16 25 1012.4 - 2.4 - Partly cloudy 10 - - - -
06/12:26pm 25.0 SSE 15 25 1012.4 - 2.4 - Partly cloudy 10 - - - -
06/12:00pm 24.4 SSE 10 16 1012.7 - 2.4 - Cloudy 10 - - - -
06/11:32am 25.7 SSE 16 26 1012.6 - 2.4 - Partly cloudy 10 - - - -
06/11:30am 26.1 SSE 15 19 1012.5 - 2.4 - Partly cloudy 10 - - - -
06/11:00am 24.9 SE 13 19 1012.7 - 2.4 - Partly cloudy 10 - - - -
06/10:30am 23.2 SSE 14 20 1012.7 - 2.4 - Partly cloudy 7 - - - -
06/10:06am 23.6 SE 9 18 1012.5 - 2.4 - Partly cloudy 10 - - - -
06/10:00am 23.6 ESE 8 13 1012.5 - 2.4 - Partly cloudy 10 - - - -
06/09:40am 23.8 SE 8 11 1012.6 - 0.4 - Partly cloudy 5 - - - -
06/09:30am 24.1 SE 13 19 1012.4 - 0.0 - Partly cloudy 10 - - - -
06/09:04am 23.8 SSE 12 18 1012.2 - 0.0 - Partly cloudy 10 - - - -
06/09:00am 23.4 SSE 10 18 1012.2 - 19.0 Recent precip. Cloudy 10 - - - -
06/08:45am 23.2 SSE 15 25 1012.2 - 18.8 - Partly cloudy 5 - - - -
06/08:44am 23.4 SSE 15 25 1012.1 - 18.8 - Partly cloudy 6 - - - -
06/08:30am 25.0 SSE 13 18 1012.0 - 18.4 - Partly cloudy 10 - - - -
06/08:00am 22.9 SSE 11 16 1012.0 - 18.4 - Partly cloudy 10 - - - -
06/07:30am 22.0 SSE 14 23 1011.6 - 18.4 - Partly cloudy 7 - - - -
06/07:21am 22.5 SE 13 24 1011.6 - 18.4 - Partly cloudy 10 - - - -
06/07:05am 23.0 SE 11 15 1011.2 - 18.4 - Partly cloudy 5 - - - -
06/07:00am 23.1 SSE 11 16 1011.1 - 17.8 - Partly cloudy 10 - - - -
06/06:30am 22.6 SE 9 12 1010.7 - 17.6 - Partly cloudy 10 - - - -
06/06:00am 22.2 SSE 9 13 1010.3 - 17.6 Recent precip. Cloudy 10 - - - -
06/05:41am 21.5 SSE 9 15 1010.2 - 17.6 - Partly cloudy 10 - - - -
06/05:30am 21.4 SSE 13 19 1010.2 - 17.6 - Partly cloudy 4 - - - -
06/05:18am 21.8 SE 13 21 1010.2 - 16.4 - Partly cloudy 4 - - - -
06/05:00am 21.7 ESE 11 19 1010.2 - 15.8 - Partly cloudy 4 - - - -
06/04:39am 21.9 SSE 6 9 1009.8 - 14.4 - Partly cloudy 2 - - - -
06/04:30am 21.7 SSE 8 13 1009.8 - 13.0 - Partly cloudy 3 - - - -
06/04:22am 21.7 SSE 10 14 1010.0 - 12.2 - Partly cloudy 4 - - - -
06/04:10am 21.1 SE 15 25 1010.1 - 12.0 - Partly cloudy 3 - - - -
06/04:01am 21.9 SE 10 15 1010.0 - 11.0 - Partly cloudy 5 - - - -
06/04:00am 21.9 SE 10 15 1010.0 - 11.0 - Partly cloudy 6 - - - -
06/03:58am 21.8 SE 10 16 1010.0 - 11.0 - Partly cloudy 6 - - - -
06/03:46am 21.6 SSE 13 18 1010.0 - 10.8 - Partly cloudy 10 - - - -
06/03:30am 21.5 SSE 17 23 1010.1 - 10.8 - Partly cloudy 1 - - - -
06/03:22am 21.9 S 15 26 1010.2 - 8.8 - Partly cloudy 2 - - - -
06/03:20am 22.2 S 14 26 1010.2 - 8.0 - Partly cloudy 3 - - - -
06/03:00am 22.9 S 12 19 1010.3 - 6.6 - Cloudy 10 - - - -
06/02:30am 22.6 S 14 22 1010.4 - 6.6 - Partly cloudy 10 - - - -
06/02:00am 22.5 SSE 13 21 1010.6 - 6.6 - Partly cloudy 7 - - - -
06/01:30am 23.0 S 14 22 1010.8 - 6.4 - Partly cloudy 10 - - - -
06/01:00am 22.8 SSE 12 18 1011.2 - 6.4 - Partly cloudy 10 - - - -
06/12:44am 22.4 S 11 17 1011.4 - 6.4 - Partly cloudy 10 - - - -
06/12:30am 21.9 S 11 17 1011.6 - 6.0 - Partly cloudy 6 - - - -
06/12:06am 21.6 SE 17 27 1011.9 - 4.8 - Partly cloudy 1 - - - -
06/12:00am 22.2 S 13 27 1012.1 - 3.0 Rain Cloudy 4 - - - -
 
Date/Time
EDT
Temp

°C
Wind Pressure Rain
since 9am
mm
Weather Cloud Vis
km
Sea
Height
m
Swell
Dir
 
Speed
knots
Gust
knots
hPa Trend Height
m
Period
s
Dir
05/11:30pm 23.0 S 12 19 1012.0 - 2.0 - Partly cloudy 10 - - - -
05/11:00pm 22.6 S 13 22 1012.3 - 2.0 - Partly cloudy 8 - - - -
05/10:30pm 24.2 S 14 23 1012.3 - 1.8 - Partly cloudy 10 - - - -
05/10:00pm 24.3 S 12 18 1012.2 - 1.8 - Partly cloudy 10 - - - -
05/09:30pm 24.4 S 14 21 1011.9 - 1.8 - Partly cloudy 10 - - - -
05/09:00pm 24.5 S 14 23 1011.6 - 1.8 - Partly cloudy 10 - - - -
05/08:30pm 24.3 S 13 20 1011.2 - 1.8 - Partly cloudy 10 - - - -
05/08:00pm 24.3 S 16 22 1011.1 - 1.8 - Partly cloudy 10 - - - -
05/07:30pm 24.3 S 14 23 1010.7 - 1.8 - Partly cloudy 10 - - - -
05/07:00pm 24.8 SSE 15 23 1010.2 - 1.8 - Partly cloudy 10 - - - -
05/06:30pm 25.1 SSE 18 24 1010.1 - 1.8 - Partly cloudy 10 - - - -
05/06:08pm 24.9 SSE 18 28 1009.8 - 1.8 - Partly cloudy 10 - - - -
05/06:00pm 24.9 SSE 18 26 1009.7 - 1.8 - Cloudy 10 - - - -
05/05:51pm 24.9 SSE 16 26 1009.7 - 1.8 - Partly cloudy 10 - - - -
05/05:30pm 25.1 SSE 19 26 1009.7 - 1.8 - Partly cloudy 10 - - - -
05/05:00pm 26.2 SSE 15 22 1009.5 - 1.8 - Partly cloudy 10 - - - -
05/04:30pm 23.9 S 13 20 1009.4 - 1.8 - Partly cloudy 9 - - - -
05/04:12pm 23.3 SSE 15 23 1009.6 - 1.8 - Partly cloudy 10 - - - -
05/04:00pm 23.1 SSE 17 27 1009.7 - 1.8 - Partly cloudy 3 - - - -
05/03:59pm 23.0 SSE 17 27 1009.7 - 1.8 - Partly cloudy 3 - - - -
05/03:52pm 23.3 SSE 16 27 1009.8 - 1.6 - Partly cloudy 4 - - - -
05/03:30pm 25.7 S 15 19 1009.8 - 1.0 - Partly cloudy 10 - - - -
05/03:00pm 24.9 S 16 24 1009.9 - 1.0 - Cloudy 10 - - - -
05/02:30pm 24.4 SSW 18 30 1010.2 - 1.0 - Partly cloudy 9 - - - -
05/02:25pm 25.9 SSW 18 30 1010.1 - 1.0 - Partly cloudy 10 - - - -
05/02:00pm 26.1 S 13 20 1010.1 - 1.0 - Partly cloudy 10 - - - -
05/01:30pm 24.2 SSW 15 21 1010.4 - 1.0 - Partly cloudy 7 - - - -
05/01:14pm 23.9 SSW 16 26 1010.5 - 1.0 - Partly cloudy 10 - - - -
05/01:09pm 24.1 SSW 14 23 1010.5 - 1.0 - Partly cloudy 10 - - - -
05/01:00pm 23.9 SSW 13 19 1010.5 - 1.0 - Partly cloudy 6 - - - -
05/12:51pm 23.1 SSW 15 23 1010.7 - 0.8 - Partly cloudy 5 - - - -
05/12:30pm 23.1 SSW 14 20 1010.8 - 0.6 - Partly cloudy 6 - - - -
05/12:00pm 22.5 SSW 15 21 1010.8 - 0.4 Recent precip. Cloudy 8 - - - -
05/11:51am 22.7 SSW 16 23 1010.8 - 0.4 - Partly cloudy 6 - - - -
05/11:41am 24.1 SSW 16 23 1010.5 - 0.2 - Partly cloudy 10 - - - -
05/11:30am 24.3 SSW 16 23 1010.5 - 0.2 - Partly cloudy 10 - - - -
05/11:00am 22.6 SSW 14 21 1010.5 - 0.2 - Partly cloudy 6 - - - -
05/10:39am 23.2 SSW 15 27 1010.4 - 0.0 - Partly cloudy 10 - - - -
05/10:30am 22.8 SSW 17 24 1010.4 - 0.0 - Partly cloudy 7 - - - -
05/10:29am 22.8 SSW 17 24 1010.4 - 0.0 - Partly cloudy 7 - - - -
05/10:23am 22.6 SSW 17 24 1010.4 - 0.0 - Partly cloudy 7 - - - -
05/10:03am 23.9 SSW 16 26 1010.3 - 0.0 - Partly cloudy 10 - - - -
05/10:00am 24.1 SSW 16 25 1010.4 - 0.0 - Partly cloudy 10 - - - -
05/09:52am 23.7 SSW 16 26 1010.4 - 0.0 - Partly cloudy 10 - - - -
05/09:51am 23.7 SSW 16 26 1010.4 - 0.0 - Partly cloudy 10 - - - -
05/09:36am 23.0 SSW 15 25 1010.2 - 0.0 - Partly cloudy 10 - - - -
05/09:30am 23.3 SSW 17 25 1010.2 - 0.0 - Partly cloudy 10 - - - -
05/09:27am 23.3 SSW 16 25 1010.2 - 0.0 - Partly cloudy 10 - - - -
05/09:24am 23.3 SSW 15 25 1010.2 - 0.0 - Partly cloudy 10 - - - -
05/09:05am 23.5 SSW 15 22 1009.9 - 0.0 - Partly cloudy 10 - - - -
05/09:00am 23.0 SSW 15 22 1009.9 - 6.0 Recent precip. Cloudy 10 - - - -
05/08:30am 22.4 SSW 10 16 1009.6 - 6.0 - Partly cloudy 10 - - - -
05/08:00am 21.9 SW 9 13 1009.2 - 5.8 - Partly cloudy 10 - - - -
05/07:30am 21.3 SW 7 11 1009.0 - 5.8 - Cloudy 10 - - - -
05/07:23am 21.3 SW 7 11 1008.9 - 5.8 - Cloudy 10 - - - -
05/07:03am 21.4 SW 8 15 1008.8 - 5.8 - Partly cloudy 5 - - - -
05/07:00am 21.4 SW 8 12 1008.7 - 5.0 - Cloudy 10 - - - -
05/06:30am 21.7 SW 9 13 1008.3 - 5.0 - Partly cloudy 10 - - - -
05/06:14am 21.7 SW 10 14 1008.0 - 5.0 - Cloudy 10 - - - -
05/06:00am 21.6 SW 9 14 1007.8 - 5.0 - Mostly cloudy 10 - - - -
05/05:30am 21.6 SW 11 13 1007.6 - 5.0 - Partly cloudy 10 - - - -
05/05:00am 21.5 SW 9 14 1007.4 - 5.0 - Partly cloudy 10 - - - -
05/04:30am 21.7 SW 10 16 1007.3 - 5.0 - Partly cloudy 10 - - - -
05/04:00am 21.9 SW 8 11 1007.6 - 5.0 - Partly cloudy 10 - - - -
05/03:30am 21.7 SW 6 11 1007.6 - 5.0 - Partly cloudy 10 - - - -
05/03:14am 21.7 SW 6 9 1007.5 - 5.0 - Partly cloudy 10 - - - -
05/03:00am 21.7 SSW 7 11 1007.7 - 5.0 Recent precip. Cloudy 5 - - - -
05/02:49am 21.7 SSW 7 11 1007.8 - 5.0 - Partly cloudy 10 - - - -
05/02:30am 21.6 SSW 9 13 1008.0 - 4.8 - Partly cloudy 5 - - - -
05/02:29am 21.6 SSW 9 13 1008.0 - 4.8 - Partly cloudy 5 - - - -
05/02:20am 21.7 SSW 10 16 1008.1 - 4.6 - Partly cloudy 8 - - - -
05/02:10am 22.1 SSW 9 14 1008.3 - 4.6 - Partly cloudy 10 - - - -
05/02:00am 22.0 SSW 8 12 1008.1 - 4.6 - Partly cloudy 10 - - - -
05/01:30am 21.6 SSW 8 12 1008.4 - 4.6 - Partly cloudy 10 - - - -
05/01:21am 21.6 SSW 10 15 1008.5 - 4.6 - Partly cloudy 9 - - - -
05/01:00am 22.0 SSW 12 17 1008.8 - 4.4 - Partly cloudy 4 - - - -
05/12:56am 22.1 SSW 13 18 1008.9 - 4.2 - Partly cloudy 5 - - - -
05/12:30am 22.4 SSW 10 14 1009.1 - 4.0 - Partly cloudy 10 - - - -
05/12:00am 22.3 SW 7 10 1009.3 - 4.0 - Cloudy 10 - - - -
 
Date/Time
EDT
Temp

°C
Wind Pressure Rain
since 9am
mm
Weather Cloud Vis
km
Sea
Height
m
Swell
Dir
 
Speed
knots
Gust
knots
hPa Trend Height
m
Period
s
Dir
04/11:30pm 21.9 SW 9 14 1009.5 - 4.0 - Partly cloudy 10 - - - -
04/11:07pm 21.9 SW 7 10 1009.5 - 4.0 - Partly cloudy 10 - - - -
04/11:00pm 21.8 SSW 8 12 1009.5 - 4.0 - Partly cloudy 7 - - - -
04/10:46pm 22.1 S 12 17 1009.7 - 3.6 - Partly cloudy 5 - - - -
04/10:30pm 23.2 SSW 9 13 1009.5 - 3.2 - Partly cloudy 10 - - - -
04/10:00pm 23.0 SW 7 10 1009.5 - 3.2 - Partly cloudy 10 - - - -
04/09:30pm 23.0 SSW 8 13 1009.3 - 3.2 - Cloudy 10 - - - -
04/09:01pm 22.8 SSW 5 13 1009.0 - 3.2 - Partly cloudy 7 - - - -
04/09:00pm 22.9 SSW 5 13 1009.0 - 3.2 Rain Cloudy 6 - - - -
04/08:38pm 23.1 SSW 9 13 1008.8 - 1.6 - Partly cloudy 5 - - - -
04/08:30pm 23.3 SW 7 13 1008.6 - 1.0 - Partly cloudy 10 - - - -
04/08:00pm 22.6 WSW 7 9 1008.2 - 1.0 - Partly cloudy 10 - - - -
04/07:30pm 22.5 W 6 7 1007.8 - 1.0 - Partly cloudy 10 - - - -
04/07:00pm 23.1 WSW 4 5 1007.5 - 1.0 - Partly cloudy 10 - - - -
04/06:30pm 22.6 SSW 5 7 1007.1 - 1.0 - Cloudy 10 - - - -
04/06:00pm 22.5 SSW 8 13 1007.0 - 1.0 Recent precip. Mostly cloudy 10 - - - -
04/05:55pm 22.3 S 10 16 1007.0 - 1.0 - Partly cloudy 10 - - - -
04/05:38pm 22.3 S 8 15 1006.9 - 1.0 - Partly cloudy 10 - - - -
04/05:30pm 22.5 SSW 7 11 1006.8 - 1.0 - Partly cloudy 7 - - - -
04/05:19pm 22.2 S 8 12 1006.9 - 1.0 - Partly cloudy 3 - - - -
04/05:04pm 22.9 S 10 16 1007.0 - 0.0 - Partly cloudy 5 - - - -
04/05:00pm 23.6 S 9 14 1006.9 - 0.0 - Partly cloudy 8 - - - -
04/04:30pm 25.4 SSE 4 7 1006.6 - 0.0 - Partly cloudy 10 - - - -
04/04:00pm 25.3 SE 4 6 1006.8 - 0.0 - Cloudy 10 - - - -
04/03:30pm 25.2 E 6 9 1006.8 - 0.0 - Cloudy 10 - - - -
04/03:00pm 24.4 ESE 5 8 1007.3 - 0.0 - Mostly cloudy 10 - - - -
04/02:30pm 24.1 SE 8 13 1007.9 - 0.0 - Cloudy 10 - - - -
04/02:00pm 24.1 SSE 10 14 1008.2 - 0.0 - Partly cloudy 10 - - - -
04/01:30pm 24.8 SSE 12 16 1008.1 - 0.0 - Cloudy 10 - - - -
04/01:00pm 25.1 SSE 13 19 1008.0 - 0.0 - Cloudy 10 - - - -
04/12:30pm 25.6 SSE 14 21 1007.9 - 0.0 - Partly cloudy 10 - - - -
04/12:00pm 26.6 S 14 21 1007.5 - 0.0 - Cloudy 10 - - - -
04/11:30am 27.2 SSE 14 19 1007.2 - 0.0 - Partly cloudy 10 - - - -
04/11:00am 27.3 SSE 13 17 1007.1 - 0.0 - Partly cloudy 10 - - - -
04/10:30am 26.9 SSE 14 19 1007.0 - 0.0 - Partly cloudy 10 - - - -
04/10:00am 26.4 SE 13 19 1006.6 - 0.0 - Partly cloudy 10 - - - -
04/09:30am 26.3 SE 12 18 1006.4 - 0.0 - Partly cloudy 10 - - - -
04/09:00am 24.9 ESE 7 10 1006.3 - 0.6 Recent precip. Cloudy 9 - - - -
04/08:54am 24.9 ESE 7 9 1006.3 - 0.6 - Partly cloudy 8 - - - -
04/08:33am 25.0 ESE 8 12 1006.3 - 0.4 - Partly cloudy 5 - - - -
04/08:30am 25.1 ESE 7 12 1006.2 - 0.2 - Partly cloudy 7 - - - -
04/08:00am 25.3 SE 6 8 1005.8 - 0.0 - Partly cloudy 10 - - - -
04/07:30am 25.5 ESE 8 11 1005.3 - 0.0 - Partly cloudy 10 - - - -
04/07:00am 25.5 ESE 9 12 1004.7 - 0.0 - Partly cloudy 10 - - - -
04/06:35am 25.4 SE 8 11 1004.4 - 0.0 - Partly cloudy 10 - - - -
04/06:30am 25.4 SE 8 11 1004.4 - 0.0 - Partly cloudy 10 - - - -
04/06:00am 24.9 WSW 3 5 1004.1 - 0.0 - Cloudy 10 - - - -

Other Formats:

Comma delimited format used in spreadsheet applications
http://www.bom.gov.au/fwo/IDN60701/IDN60701.94596.axf

JavaScript Object Notation format (JSON) in row-major order
http://www.bom.gov.au/fwo/IDN60701/IDN60701.94596.json